createdAt,value
2022-10-17T00:00:11.743Z,73.08
2022-10-17T00:00:44.763Z,73.19
2022-10-17T00:01:18.008Z,73.26
2022-10-17T00:01:31.406Z,73.23
2022-10-17T00:01:44.552Z,73.19
2022-10-17T00:01:57.551Z,73.15
2022-10-17T00:02:10.733Z,73.20
2022-10-17T00:02:23.805Z,73.21
2022-10-17T00:02:36.933Z,73.26
2022-10-17T00:02:50.347Z,73.30
2022-10-17T00:03:03.514Z,73.30
2022-10-17T00:03:16.969Z,73.21
2022-10-17T00:03:29.976Z,73.43
2022-10-17T00:03:43.493Z,73.33
2022-10-17T00:03:56.754Z,73.34
2022-10-17T00:04:09.734Z,73.35
2022-10-17T00:04:22.747Z,73.35
2022-10-17T00:04:35.737Z,73.37
2022-10-17T00:04:48.687Z,73.43
2022-10-17T00:05:01.681Z,73.42
2022-10-17T00:05:15.050Z,73.40
2022-10-17T00:05:28.116Z,73.41
2022-10-17T00:05:43.942Z,73.44
2022-10-17T00:05:58.336Z,73.45
2022-10-17T00:06:15.441Z,73.38
2022-10-17T00:06:28.633Z,73.43
2022-10-17T00:06:42.414Z,73.45
2022-10-17T00:06:56.074Z,73.40
2022-10-17T00:07:07.473Z,73.30
2022-10-17T00:07:20.441Z,73.37
2022-10-17T00:07:33.539Z,73.36
2022-10-17T00:07:46.530Z,73.28
2022-10-17T00:07:58.625Z,73.35
2022-10-17T00:08:12.645Z,73.33
2022-10-17T00:08:25.689Z,73.37
2022-10-17T00:08:40.845Z,73.32
2022-10-17T00:08:52.249Z,73.40
2022-10-17T00:09:05.388Z,73.34
2022-10-17T00:09:16.702Z,73.32
2022-10-17T00:09:30.072Z,73.32
2022-10-17T00:09:43.040Z,73.23
2022-10-17T00:09:56.636Z,73.27
2022-10-17T00:10:10.689Z,73.34
2022-10-17T00:10:23.805Z,73.31
2022-10-17T00:10:37.281Z,73.27
2022-10-17T00:10:59.484Z,73.18
2022-10-17T00:11:16.975Z,73.28
2022-10-17T00:11:30.131Z,73.34
2022-10-17T00:11:43.092Z,73.33
2022-10-17T00:11:56.106Z,73.35
2022-10-17T00:12:09.240Z,73.42
2022-10-17T00:12:22.252Z,73.33
2022-10-17T00:12:35.874Z,73.30
2022-10-17T00:12:48.948Z,73.40
2022-10-17T00:13:01.952Z,73.35
2022-10-17T00:13:15.153Z,73.36
2022-10-17T00:13:29.049Z,73.42
2022-10-17T00:13:42.081Z,73.45
2022-10-17T00:13:57.715Z,73.47
2022-10-17T00:14:10.849Z,73.51
2022-10-17T00:14:23.920Z,73.48
2022-10-17T00:14:37.526Z,73.42
2022-10-17T00:14:50.591Z,73.39
2022-10-17T00:15:06.252Z,73.45
2022-10-17T00:15:21.585Z,73.46
2022-10-17T00:15:34.978Z,73.42
2022-10-17T00:15:47.959Z,73.50
2022-10-17T00:16:01.318Z,73.40
2022-10-17T00:16:14.745Z,73.35
2022-10-17T00:16:29.243Z,73.40
2022-10-17T00:16:42.254Z,73.50
2022-10-17T00:16:55.230Z,73.51
2022-10-17T00:17:08.788Z,73.64
2022-10-17T00:17:21.795Z,73.58
2022-10-17T00:17:35.002Z,73.62
2022-10-17T00:17:46.362Z,73.57
2022-10-17T00:17:59.654Z,73.58
2022-10-17T00:18:12.667Z,73.54
2022-10-17T00:18:25.983Z,73.50
2022-10-17T00:18:39.082Z,73.45
2022-10-17T00:18:52.239Z,73.53
2022-10-17T00:19:06.729Z,73.49
2022-10-17T00:19:19.669Z,73.50
2022-10-17T00:19:33.073Z,73.56
2022-10-17T00:19:46.222Z,73.57
2022-10-17T00:20:01.530Z,73.59
2022-10-17T00:20:16.294Z,73.60
2022-10-17T00:20:30.515Z,73.56
2022-10-17T00:20:43.515Z,73.60
2022-10-17T00:20:56.508Z,73.59
2022-10-17T00:21:15.793Z,73.64
2022-10-17T00:21:29.895Z,73.66
2022-10-17T00:21:42.842Z,73.61
2022-10-17T00:21:54.217Z,73.58
2022-10-17T00:22:07.146Z,73.54
2022-10-17T00:22:20.089Z,73.55
2022-10-17T00:22:33.096Z,73.55
2022-10-17T00:22:46.372Z,73.47
2022-10-17T00:22:58.010Z,73.55
2022-10-17T00:23:10.943Z,73.54
2022-10-17T00:23:24.507Z,73.54
2022-10-17T00:23:37.655Z,73.61
2022-10-17T00:23:51.476Z,73.59
2022-10-17T00:24:04.934Z,73.61
2022-10-17T00:24:18.117Z,73.63
2022-10-17T00:24:33.063Z,73.66
2022-10-17T00:24:46.037Z,73.74
2022-10-17T00:24:59.357Z,73.69
2022-10-17T00:25:13.566Z,73.80
2022-10-17T00:25:26.565Z,73.77
2022-10-17T00:25:40.670Z,73.75
2022-10-17T00:26:02.557Z,73.77
2022-10-17T00:26:16.669Z,73.78
2022-10-17T00:26:30.648Z,73.68
2022-10-17T00:26:43.632Z,73.70
2022-10-17T00:26:55.203Z,73.71
2022-10-17T00:27:08.192Z,73.64
2022-10-17T00:27:21.689Z,73.63
2022-10-17T00:27:37.940Z,73.70
2022-10-17T00:27:50.902Z,73.63
2022-10-17T00:28:04.203Z,73.64
2022-10-17T00:28:18.380Z,73.63
2022-10-17T00:28:31.696Z,73.64
2022-10-17T00:28:43.078Z,73.62
2022-10-17T00:28:56.998Z,73.61
2022-10-17T00:29:08.383Z,73.63
2022-10-17T00:29:21.455Z,73.62
2022-10-17T00:29:34.508Z,73.71
2022-10-17T00:29:51.176Z,73.62
2022-10-17T00:30:05.482Z,73.58
2022-10-17T00:30:18.971Z,73.61
2022-10-17T00:30:32.912Z,73.59
2022-10-17T00:30:45.861Z,73.63
2022-10-17T00:31:05.792Z,73.58
2022-10-17T00:31:20.426Z,73.60
2022-10-17T00:31:34.036Z,73.66
2022-10-17T00:31:47.525Z,73.65
2022-10-17T00:32:00.677Z,73.63
2022-10-17T00:32:12.113Z,73.63
2022-10-17T00:32:25.559Z,73.66
2022-10-17T00:32:38.906Z,73.70
2022-10-17T00:32:51.940Z,73.68
2022-10-17T00:33:05.050Z,73.65
2022-10-17T00:33:16.463Z,73.72
2022-10-17T00:33:30.921Z,73.68
2022-10-17T00:33:44.277Z,73.58
2022-10-17T00:33:57.370Z,73.63
2022-10-17T00:34:10.385Z,73.72
2022-10-17T00:34:23.420Z,73.66
2022-10-17T00:34:38.112Z,73.67
2022-10-17T00:34:51.074Z,73.76
2022-10-17T00:35:03.320Z,73.65
2022-10-17T00:35:16.335Z,73.74
2022-10-17T00:35:29.410Z,73.71
2022-10-17T00:35:42.377Z,73.72
2022-10-17T00:36:05.572Z,73.72
2022-10-17T00:36:20.368Z,73.84
2022-10-17T00:36:34.973Z,73.86
2022-10-17T00:36:48.425Z,73.80
2022-10-17T00:37:01.650Z,73.79
2022-10-17T00:37:14.819Z,73.80
2022-10-17T00:37:28.120Z,73.85
2022-10-17T00:37:41.605Z,73.80
2022-10-17T00:37:54.881Z,73.91
2022-10-17T00:38:08.348Z,73.91
2022-10-17T00:38:21.674Z,73.92
2022-10-17T00:38:35.069Z,73.89
2022-10-17T00:38:47.607Z,73.83
2022-10-17T00:39:01.975Z,73.86
2022-10-17T00:39:14.983Z,73.83
2022-10-17T00:39:26.891Z,73.83
2022-10-17T00:39:39.955Z,73.79
2022-10-17T00:39:53.230Z,73.81
2022-10-17T00:40:07.740Z,73.74
2022-10-17T00:40:21.271Z,73.79
2022-10-17T00:40:34.262Z,73.78
2022-10-17T00:40:47.386Z,73.85
2022-10-17T00:41:00.211Z,73.80
2022-10-17T00:41:16.190Z,73.84
2022-10-17T00:41:32.958Z,73.85
2022-10-17T00:41:44.449Z,73.90
2022-10-17T00:41:57.415Z,73.90
2022-10-17T00:42:13.615Z,73.88
2022-10-17T00:42:27.101Z,73.87
2022-10-17T00:42:40.205Z,73.94
2022-10-17T00:42:53.313Z,73.92
2022-10-17T00:43:06.334Z,73.94
2022-10-17T00:43:21.268Z,73.93
2022-10-17T00:43:52.198Z,73.95
2022-10-17T00:44:08.039Z,73.94
2022-10-17T00:44:55.137Z,73.97
2022-10-17T00:45:14.017Z,74.15
2022-10-17T00:45:30.730Z,74.15
2022-10-17T00:45:43.648Z,74.15
2022-10-17T00:45:57.988Z,74.15
2022-10-17T00:46:11.237Z,74.19
2022-10-17T00:46:27.695Z,74.18
2022-10-17T00:46:41.386Z,74.25
2022-10-17T00:46:55.235Z,74.22
2022-10-17T00:47:13.976Z,74.20
2022-10-17T00:47:25.422Z,74.20
2022-10-17T00:47:38.666Z,74.18
2022-10-17T00:47:56.286Z,74.14
2022-10-17T00:48:13.059Z,74.11
2022-10-17T00:48:27.454Z,74.12
2022-10-17T00:48:40.590Z,74.05
2022-10-17T00:48:56.696Z,74.10
2022-10-17T00:49:12.558Z,74.08
2022-10-17T00:49:27.529Z,74.12
2022-10-17T00:49:41.967Z,74.21
2022-10-17T00:49:55.083Z,74.19
2022-10-17T00:50:10.837Z,74.16
2022-10-17T00:50:24.857Z,74.26
2022-10-17T00:50:40.906Z,74.28
2022-10-17T00:50:54.073Z,74.33
2022-10-17T00:51:07.767Z,74.32
2022-10-17T00:51:26.707Z,74.41
2022-10-17T00:51:42.949Z,74.43
2022-10-17T00:52:00.265Z,74.44
2022-10-17T00:52:19.105Z,74.44
2022-10-17T00:52:33.332Z,74.44
2022-10-17T00:52:47.783Z,74.44
2022-10-17T00:53:04.291Z,74.38
2022-10-17T00:53:17.961Z,74.36
2022-10-17T00:53:31.176Z,74.31
2022-10-17T00:53:42.701Z,74.31
2022-10-17T00:53:54.554Z,74.24
2022-10-17T00:54:09.065Z,74.29
2022-10-17T00:54:25.482Z,74.29
2022-10-17T00:54:42.190Z,74.25
2022-10-17T00:54:59.670Z,74.33
2022-10-17T00:55:17.582Z,74.26
2022-10-17T00:55:34.335Z,74.33
2022-10-17T00:55:52.835Z,74.30
2022-10-17T00:56:06.504Z,74.30
2022-10-17T00:56:20.051Z,74.28
2022-10-17T00:56:33.998Z,74.35
2022-10-17T00:56:48.239Z,74.29
2022-10-17T00:57:01.432Z,74.27
2022-10-17T00:57:15.255Z,74.22
2022-10-17T00:57:29.091Z,74.36
2022-10-17T00:57:43.000Z,74.27
2022-10-17T00:57:56.826Z,74.37
2022-10-17T00:58:10.181Z,74.31
2022-10-17T00:58:23.894Z,74.35
2022-10-17T00:58:36.972Z,74.40
2022-10-17T00:58:49.831Z,74.43
2022-10-17T00:59:03.420Z,74.41
2022-10-17T00:59:20.584Z,74.45
2022-10-17T00:59:37.235Z,74.47
2022-10-17T00:59:53.212Z,74.44
2022-10-17T01:00:11.967Z,74.46
2022-10-17T01:00:25.479Z,74.40
2022-10-17T01:00:39.052Z,74.44
2022-10-17T01:00:50.727Z,74.38
2022-10-17T01:01:04.970Z,74.33
2022-10-17T01:01:18.344Z,74.22
2022-10-17T01:01:31.726Z,74.21
2022-10-17T01:01:50.489Z,74.26
2022-10-17T01:02:07.352Z,74.17
2022-10-17T01:02:22.417Z,74.22
2022-10-17T01:02:35.464Z,74.24
2022-10-17T01:02:48.838Z,74.20
2022-10-17T01:03:03.113Z,74.28
2022-10-17T01:03:17.055Z,74.27
2022-10-17T01:03:30.141Z,74.20
2022-10-17T01:03:43.459Z,74.22
2022-10-17T01:03:56.438Z,74.18
2022-10-17T01:04:09.422Z,74.19
2022-10-17T01:04:22.919Z,74.16
2022-10-17T01:04:36.746Z,74.24
2022-10-17T01:04:49.639Z,74.21
2022-10-17T01:05:03.843Z,74.25
2022-10-17T01:05:17.392Z,74.24
2022-10-17T01:05:30.527Z,74.22
2022-10-17T01:05:44.170Z,74.29
2022-10-17T01:05:58.019Z,74.26
2022-10-17T01:06:11.106Z,74.25
2022-10-17T01:06:24.562Z,74.27
2022-10-17T01:06:37.517Z,74.20
2022-10-17T01:06:48.854Z,74.22
2022-10-17T01:07:01.944Z,74.29
2022-10-17T01:07:15.273Z,74.27
2022-10-17T01:07:33.174Z,74.27
2022-10-17T01:07:51.222Z,74.25
2022-10-17T01:08:04.321Z,74.29
2022-10-17T01:08:17.922Z,74.27
2022-10-17T01:08:31.178Z,74.32
2022-10-17T01:08:44.294Z,74.25
2022-10-17T01:08:55.815Z,74.26
2022-10-17T01:09:08.991Z,74.25
2022-10-17T01:09:22.348Z,74.27
2022-10-17T01:09:35.692Z,74.27
2022-10-17T01:09:49.673Z,74.31
2022-10-17T01:10:03.224Z,74.27
2022-10-17T01:10:16.946Z,74.27
2022-10-17T01:10:36.133Z,74.32
2022-10-17T01:10:59.795Z,74.27
2022-10-17T01:11:21.848Z,74.31
2022-10-17T01:11:39.619Z,74.21
2022-10-17T01:11:58.102Z,74.22
2022-10-17T01:12:20.825Z,74.26
2022-10-17T01:12:42.541Z,74.32
2022-10-17T01:13:05.583Z,74.32
2022-10-17T01:13:25.402Z,74.35
2022-10-17T01:13:43.966Z,74.33
2022-10-17T01:14:03.971Z,74.33
2022-10-17T01:14:27.713Z,74.31
2022-10-17T01:14:49.781Z,74.34
2022-10-17T01:15:11.779Z,74.29
2022-10-17T01:15:36.485Z,74.29
2022-10-17T01:16:05.570Z,74.33
2022-10-17T01:16:24.545Z,74.40
2022-10-17T01:16:48.985Z,74.44
2022-10-17T01:17:07.582Z,74.41
2022-10-17T01:17:30.623Z,74.41
2022-10-17T01:17:54.891Z,74.44
2022-10-17T01:18:14.789Z,74.44
2022-10-17T01:18:39.688Z,74.48
2022-10-17T01:19:01.525Z,74.53
2022-10-17T01:19:28.800Z,74.55
2022-10-17T01:20:00.818Z,74.67
2022-10-17T01:20:46.844Z,74.66
2022-10-17T01:21:11.869Z,74.66
2022-10-17T01:21:39.842Z,74.69
2022-10-17T01:22:01.479Z,74.72
2022-10-17T01:22:19.005Z,74.70
2022-10-17T01:22:41.840Z,74.72
2022-10-17T01:23:06.013Z,74.72
2022-10-17T01:23:34.787Z,74.75
2022-10-17T01:24:05.203Z,74.85
2022-10-17T01:24:57.110Z,74.90
2022-10-17T01:25:24.991Z,75.02
2022-10-17T01:25:53.782Z,75.01
2022-10-17T01:26:18.953Z,75.05
2022-10-17T01:26:45.552Z,74.92
2022-10-17T01:27:16.819Z,74.92
2022-10-17T01:27:50.242Z,74.98
2022-10-17T01:28:19.955Z,75.00
2022-10-17T01:29:26.596Z,75.06
2022-10-17T01:29:58.999Z,74.99
2022-10-17T01:30:53.749Z,74.99
2022-10-17T01:31:11.431Z,75.08
2022-10-17T01:31:27.036Z,75.02
2022-10-17T01:31:45.924Z,75.03
2022-10-17T01:32:03.624Z,74.97
2022-10-17T01:32:20.003Z,75.05
2022-10-17T01:32:39.907Z,75.09
2022-10-17T01:32:58.151Z,75.05
2022-10-17T01:33:15.604Z,75.04
2022-10-17T01:33:33.999Z,75.11
2022-10-17T01:34:00.002Z,75.07
2022-10-17T01:34:20.231Z,75.03
2022-10-17T01:34:36.060Z,75.05
2022-10-17T01:34:55.321Z,75.15
2022-10-17T01:35:11.597Z,75.09
2022-10-17T01:35:30.958Z,75.06
2022-10-17T01:35:53.961Z,75.12
2022-10-17T01:36:12.937Z,75.07
2022-10-17T01:36:38.810Z,75.14
2022-10-17T01:36:52.638Z,75.10
2022-10-17T01:37:10.052Z,75.11
2022-10-17T01:37:29.769Z,75.17
2022-10-17T01:37:49.619Z,75.20
2022-10-17T01:38:10.657Z,75.18
2022-10-17T01:38:26.815Z,75.20
2022-10-17T01:38:47.747Z,75.24
2022-10-17T01:39:08.425Z,75.21
2022-10-17T01:39:28.043Z,75.17
2022-10-17T01:39:48.286Z,75.28
2022-10-17T01:40:10.589Z,75.27
2022-10-17T01:40:28.695Z,75.25
2022-10-17T01:40:44.838Z,75.30
2022-10-17T01:41:00.625Z,75.31
2022-10-17T01:41:16.282Z,75.26
2022-10-17T01:41:31.328Z,75.21
2022-10-17T01:41:50.196Z,75.24
2022-10-17T01:42:11.948Z,75.22
2022-10-17T01:42:30.617Z,75.28
2022-10-17T01:42:49.446Z,75.26
2022-10-17T01:43:08.820Z,75.28
2022-10-17T01:43:27.667Z,75.27
2022-10-17T01:43:42.671Z,75.37
2022-10-17T01:44:00.673Z,75.33
2022-10-17T01:44:15.091Z,75.31
2022-10-17T01:44:33.978Z,75.24
2022-10-17T01:44:50.678Z,75.36
2022-10-17T01:45:08.270Z,75.31
2022-10-17T01:45:26.761Z,75.37
2022-10-17T01:45:46.640Z,75.38
2022-10-17T01:46:04.736Z,75.34
2022-10-17T01:46:24.509Z,75.31
2022-10-17T01:46:40.088Z,75.30
2022-10-17T01:46:52.721Z,75.30
2022-10-17T01:47:10.386Z,75.32
2022-10-17T01:47:27.336Z,75.31
2022-10-17T01:47:39.582Z,75.34
2022-10-17T01:47:54.751Z,75.40
2022-10-17T01:48:13.907Z,75.30
2022-10-17T01:48:31.455Z,75.20
2022-10-17T01:48:47.021Z,75.23
2022-10-17T01:49:04.387Z,75.32
2022-10-17T01:49:22.303Z,75.29
2022-10-17T01:49:35.426Z,75.33
2022-10-17T01:49:51.957Z,75.41
2022-10-17T01:50:08.026Z,75.38
2022-10-17T01:50:25.233Z,75.35
2022-10-17T01:50:44.864Z,75.39
2022-10-17T01:51:04.285Z,75.40
2022-10-17T01:51:18.824Z,75.43
2022-10-17T01:51:35.640Z,75.38
2022-10-17T01:51:52.916Z,75.41
2022-10-17T01:52:11.095Z,75.49
2022-10-17T01:52:28.963Z,75.44
2022-10-17T01:52:47.692Z,75.39
2022-10-17T01:53:06.337Z,75.46
2022-10-17T01:53:25.510Z,75.47
2022-10-17T01:53:44.335Z,75.46
2022-10-17T01:54:03.569Z,75.54
2022-10-17T01:54:21.269Z,75.51
2022-10-17T01:54:39.680Z,75.55
2022-10-17T01:54:56.259Z,75.54
2022-10-17T01:55:14.972Z,75.48
2022-10-17T01:55:28.937Z,75.49
2022-10-17T01:55:45.501Z,75.45
2022-10-17T01:56:01.866Z,75.47
2022-10-17T01:56:18.641Z,75.53
2022-10-17T01:56:34.240Z,75.47
2022-10-17T01:56:47.587Z,75.32
2022-10-17T01:57:01.489Z,75.47
2022-10-17T01:57:18.426Z,75.44
2022-10-17T01:57:37.289Z,75.41
2022-10-17T01:57:55.216Z,75.47
2022-10-17T01:58:13.653Z,75.45
2022-10-17T01:58:31.937Z,75.38
2022-10-17T01:58:51.223Z,75.44
2022-10-17T01:59:10.632Z,75.35
2022-10-17T01:59:30.309Z,75.40
2022-10-17T01:59:45.549Z,75.43
2022-10-17T01:59:59.334Z,75.48
2022-10-17T02:00:18.194Z,75.46
2022-10-17T02:00:33.634Z,75.50
2022-10-17T02:00:49.760Z,75.46
2022-10-17T02:01:05.711Z,75.56
2022-10-17T02:01:18.443Z,75.51
2022-10-17T02:01:32.784Z,75.56
2022-10-17T02:01:47.855Z,75.49
2022-10-17T02:02:00.673Z,75.53
2022-10-17T02:02:15.785Z,75.52
2022-10-17T02:02:30.295Z,75.57
2022-10-17T02:02:45.368Z,75.63
2022-10-17T02:03:04.790Z,75.63
2022-10-17T02:03:20.920Z,75.58
2022-10-17T02:03:35.618Z,75.51
2022-10-17T02:03:52.612Z,75.54
2022-10-17T02:04:06.758Z,75.62
2022-10-17T02:04:18.120Z,75.59
2022-10-17T02:04:31.350Z,75.62
2022-10-17T02:04:45.151Z,75.66
2022-10-17T02:05:15.351Z,75.66
2022-10-17T02:05:33.318Z,75.59
2022-10-17T02:05:46.968Z,75.71
2022-10-17T02:06:00.021Z,75.68
2022-10-17T02:06:13.921Z,75.74
2022-10-17T02:06:27.006Z,75.67
2022-10-17T02:06:39.259Z,75.71
2022-10-17T02:06:57.230Z,75.74
2022-10-17T02:07:11.680Z,75.74
2022-10-17T02:07:23.315Z,75.74
2022-10-17T02:07:36.320Z,75.74
2022-10-17T02:07:49.288Z,75.70
2022-10-17T02:08:02.239Z,75.70
2022-10-17T02:08:15.775Z,75.70
2022-10-17T02:08:31.559Z,75.67
2022-10-17T02:08:47.241Z,75.67
2022-10-17T02:09:00.625Z,75.65
2022-10-17T02:09:25.370Z,75.75
2022-10-17T02:09:38.906Z,75.71
2022-10-17T02:09:52.038Z,75.74
2022-10-17T02:10:05.882Z,75.62
2022-10-17T02:10:26.228Z,75.72
2022-10-17T02:10:44.200Z,75.70
2022-10-17T02:11:02.115Z,75.66
2022-10-17T02:11:18.890Z,75.71
2022-10-17T02:11:32.236Z,75.70
2022-10-17T02:11:53.588Z,75.73
2022-10-17T02:12:46.553Z,75.73
2022-10-17T02:13:06.535Z,75.74
2022-10-17T02:13:28.596Z,75.78
2022-10-17T02:13:52.636Z,75.82
2022-10-17T02:14:29.321Z,75.75
2022-10-17T02:14:54.973Z,75.77
2022-10-17T02:15:11.670Z,75.79
2022-10-17T02:15:39.959Z,75.80
2022-10-17T02:16:14.291Z,75.81
2022-10-17T02:16:35.287Z,75.86
2022-10-17T02:17:01.711Z,75.92
2022-10-17T02:17:20.994Z,75.90
2022-10-17T02:17:46.211Z,75.88
2022-10-17T02:18:09.734Z,75.86
2022-10-17T02:18:37.381Z,75.88
2022-10-17T02:18:56.900Z,75.92
2022-10-17T02:19:46.611Z,75.98
2022-10-17T02:20:09.900Z,76.00
2022-10-17T02:20:27.915Z,75.93
2022-10-17T02:20:50.848Z,75.91
2022-10-17T02:21:09.541Z,76.03
2022-10-17T02:21:33.675Z,76.00
2022-10-17T02:21:51.355Z,76.02
2022-10-17T02:22:08.405Z,75.97
2022-10-17T02:22:31.772Z,76.08
2022-10-17T02:22:48.960Z,76.07
2022-10-17T02:23:11.112Z,76.07
2022-10-17T02:23:37.325Z,76.11
2022-10-17T02:23:57.195Z,76.02
2022-10-17T02:24:18.542Z,76.06
2022-10-17T02:24:39.123Z,76.14
2022-10-17T02:25:01.399Z,76.11
2022-10-17T02:25:22.782Z,76.12
2022-10-17T02:25:46.039Z,76.06
2022-10-17T02:26:08.395Z,76.01
2022-10-17T02:26:27.259Z,76.04
2022-10-17T02:26:46.939Z,76.09
2022-10-17T02:27:09.293Z,76.13
2022-10-17T02:27:34.780Z,76.17
2022-10-17T02:27:58.118Z,76.12
2022-10-17T02:28:21.255Z,76.11
2022-10-17T02:28:41.736Z,76.16
2022-10-17T02:29:04.590Z,76.10
2022-10-17T02:29:21.581Z,76.13
2022-10-17T02:29:40.531Z,76.23
2022-10-17T02:30:03.060Z,76.21
2022-10-17T02:30:24.757Z,76.28
2022-10-17T02:30:43.301Z,76.20
2022-10-17T02:30:55.949Z,76.31
2022-10-17T02:31:14.811Z,76.30
2022-10-17T02:31:33.171Z,76.36
2022-10-17T02:31:50.945Z,76.35
2022-10-17T02:32:08.192Z,76.41
2022-10-17T02:32:26.370Z,76.46
2022-10-17T02:32:48.053Z,76.41
2022-10-17T02:33:12.595Z,76.38
2022-10-17T02:33:30.462Z,76.42
2022-10-17T02:33:50.271Z,76.30
2022-10-17T02:34:04.977Z,76.42
2022-10-17T02:34:22.823Z,76.45
2022-10-17T02:34:42.487Z,76.44
2022-10-17T02:34:56.612Z,76.41
2022-10-17T02:35:14.478Z,76.49
2022-10-17T02:35:31.527Z,76.57
2022-10-17T02:35:48.776Z,76.57
2022-10-17T02:36:10.308Z,76.59
2022-10-17T02:36:27.705Z,76.62
2022-10-17T02:36:45.204Z,76.56
2022-10-17T02:37:01.791Z,76.54
2022-10-17T02:37:16.236Z,76.59
2022-10-17T02:37:32.178Z,76.62
2022-10-17T02:37:47.281Z,76.58
2022-10-17T02:38:02.089Z,76.57
2022-10-17T02:38:15.813Z,76.50
2022-10-17T02:38:31.830Z,76.55
2022-10-17T02:38:43.629Z,76.50
2022-10-17T02:38:57.200Z,76.54
2022-10-17T02:39:12.928Z,76.55
2022-10-17T02:39:29.527Z,76.59
2022-10-17T02:39:44.165Z,76.57
2022-10-17T02:40:01.977Z,76.58
2022-10-17T02:40:18.189Z,76.59
2022-10-17T02:40:32.881Z,76.55
2022-10-17T02:40:48.058Z,76.54
2022-10-17T02:41:02.431Z,76.60
2022-10-17T02:41:19.355Z,76.63
2022-10-17T02:41:34.371Z,76.65
2022-10-17T02:41:49.178Z,76.66
2022-10-17T02:42:05.471Z,76.67
2022-10-17T02:42:19.287Z,76.67
2022-10-17T02:42:33.969Z,76.64
2022-10-17T02:42:51.165Z,76.69
2022-10-17T02:43:04.625Z,76.74
2022-10-17T02:43:17.849Z,76.76
2022-10-17T02:43:31.452Z,76.67
2022-10-17T02:43:45.852Z,76.77
2022-10-17T02:44:02.276Z,76.64
2022-10-17T02:44:14.049Z,76.83
2022-10-17T02:44:28.262Z,76.72
2022-10-17T02:44:44.522Z,76.75
2022-10-17T02:45:03.031Z,76.73
2022-10-17T02:45:17.824Z,76.74
2022-10-17T02:45:30.347Z,76.74
2022-10-17T02:45:44.023Z,76.73
2022-10-17T02:45:57.811Z,76.77
2022-10-17T02:46:11.596Z,76.80
2022-10-17T02:46:24.680Z,76.75
2022-10-17T02:46:39.614Z,76.75
2022-10-17T02:47:01.075Z,76.81
2022-10-17T02:47:18.992Z,76.79
2022-10-17T02:47:37.974Z,76.93
2022-10-17T02:47:59.104Z,76.89
2022-10-17T02:48:18.564Z,76.94
2022-10-17T02:48:38.302Z,76.89
2022-10-17T02:48:54.503Z,76.94
2022-10-17T02:49:15.407Z,76.94
2022-10-17T02:49:33.044Z,76.91
2022-10-17T02:49:52.260Z,76.99
2022-10-17T02:50:04.329Z,77.01
2022-10-17T02:50:17.849Z,76.94
2022-10-17T02:50:40.760Z,76.92
2022-10-17T02:51:00.903Z,76.97
2022-10-17T02:51:25.297Z,76.96
2022-10-17T02:51:43.999Z,76.94
2022-10-17T02:52:02.947Z,76.90
2022-10-17T02:52:21.223Z,76.93
2022-10-17T02:52:40.926Z,76.89
2022-10-17T02:52:57.947Z,76.94
2022-10-17T02:53:15.717Z,76.90
2022-10-17T02:53:35.720Z,76.89
2022-10-17T02:53:59.504Z,76.82
2022-10-17T02:54:18.916Z,76.91
2022-10-17T02:54:40.216Z,76.85
2022-10-17T02:54:57.628Z,76.83
2022-10-17T02:55:17.871Z,76.88
2022-10-17T02:55:35.428Z,76.82
2022-10-17T02:55:53.415Z,76.81
2022-10-17T02:56:13.685Z,76.80
2022-10-17T02:56:32.054Z,76.72
2022-10-17T02:56:49.542Z,76.77
2022-10-17T02:57:02.631Z,76.68
2022-10-17T02:57:21.552Z,76.70
2022-10-17T02:57:38.613Z,76.78
2022-10-17T02:57:54.851Z,76.63
2022-10-17T02:58:13.447Z,76.76
2022-10-17T02:58:30.914Z,76.80
2022-10-17T02:58:47.440Z,76.79
2022-10-17T02:59:04.614Z,76.77
2022-10-17T02:59:20.062Z,76.83
2022-10-17T02:59:31.870Z,76.83
2022-10-17T02:59:47.067Z,76.88
2022-10-17T03:00:02.654Z,76.86
2022-10-17T03:00:18.227Z,76.87
2022-10-17T03:00:33.309Z,76.83
2022-10-17T03:00:46.580Z,76.88
2022-10-17T03:01:00.409Z,76.91
2022-10-17T03:01:16.899Z,76.90
2022-10-17T03:01:30.586Z,76.91
2022-10-17T03:01:42.342Z,76.99
2022-10-17T03:01:55.715Z,76.94
2022-10-17T03:02:09.559Z,76.93
2022-10-17T03:02:21.787Z,76.90
2022-10-17T03:02:44.082Z,77.01
2022-10-17T03:02:57.713Z,77.02
2022-10-17T03:03:25.299Z,77.02
2022-10-17T03:03:38.372Z,77.01
2022-10-17T03:03:51.613Z,77.01
2022-10-17T03:04:12.997Z,77.10
2022-10-17T03:04:25.933Z,77.02
2022-10-17T03:04:39.436Z,77.03
2022-10-17T03:04:52.798Z,77.10
2022-10-17T03:05:06.220Z,77.05
2022-10-17T03:05:22.326Z,77.18
2022-10-17T03:05:35.277Z,77.14
2022-10-17T03:05:48.369Z,77.14
2022-10-17T03:06:01.701Z,77.16
2022-10-17T03:06:14.804Z,77.17
2022-10-17T03:06:28.068Z,77.18
2022-10-17T03:06:42.823Z,77.19
2022-10-17T03:06:55.832Z,77.23
2022-10-17T03:07:09.500Z,77.20
2022-10-17T03:07:21.012Z,77.28
2022-10-17T03:07:34.112Z,77.15
2022-10-17T03:07:47.350Z,77.12
2022-10-17T03:08:00.706Z,77.18
2022-10-17T03:08:12.839Z,77.26
2022-10-17T03:08:25.996Z,77.19
2022-10-17T03:08:39.410Z,77.27
2022-10-17T03:08:52.679Z,77.24
2022-10-17T03:09:05.835Z,77.27
2022-10-17T03:09:19.079Z,77.20
2022-10-17T03:09:32.306Z,77.24
2022-10-17T03:09:45.328Z,77.23
2022-10-17T03:09:58.311Z,77.27
2022-10-17T03:10:12.248Z,77.29
2022-10-17T03:10:23.872Z,77.28
2022-10-17T03:10:37.145Z,77.22
2022-10-17T03:10:50.557Z,77.30
2022-10-17T03:11:04.326Z,77.36
2022-10-17T03:11:19.165Z,77.26
2022-10-17T03:11:32.186Z,77.34
2022-10-17T03:11:45.247Z,77.37
2022-10-17T03:11:58.210Z,77.34
2022-10-17T03:12:11.683Z,77.31
2022-10-17T03:12:24.745Z,77.26
2022-10-17T03:12:38.720Z,77.28
2022-10-17T03:12:51.761Z,77.30
2022-10-17T03:13:04.884Z,77.35
2022-10-17T03:13:18.923Z,77.35
2022-10-17T03:13:35.006Z,77.36
2022-10-17T03:13:50.719Z,77.48
2022-10-17T03:14:03.765Z,77.48
2022-10-17T03:14:16.849Z,77.36
2022-10-17T03:14:29.966Z,77.42
2022-10-17T03:14:43.159Z,77.43
2022-10-17T03:14:56.406Z,77.38
2022-10-17T03:15:11.852Z,77.37
2022-10-17T03:15:24.824Z,77.44
2022-10-17T03:15:37.905Z,77.37
2022-10-17T03:15:50.998Z,77.40
2022-10-17T03:16:03.941Z,77.37
2022-10-17T03:16:16.885Z,77.37
2022-10-17T03:16:30.139Z,77.41
2022-10-17T03:16:43.283Z,77.34
2022-10-17T03:16:56.307Z,77.33
2022-10-17T03:17:09.266Z,77.31
2022-10-17T03:17:22.348Z,77.33
2022-10-17T03:17:35.483Z,77.42
2022-10-17T03:17:48.627Z,77.42
2022-10-17T03:18:02.571Z,77.32
2022-10-17T03:18:16.394Z,77.38
2022-10-17T03:18:30.547Z,77.41
2022-10-17T03:18:49.291Z,77.37
2022-10-17T03:19:04.321Z,77.44
2022-10-17T03:19:18.203Z,77.46
2022-10-17T03:19:29.711Z,77.44
2022-10-17T03:19:42.712Z,77.44
2022-10-17T03:19:55.729Z,77.44
2022-10-17T03:20:11.381Z,77.41
2022-10-17T03:20:24.489Z,77.45
2022-10-17T03:20:37.755Z,77.41
2022-10-17T03:20:51.007Z,77.41
2022-10-17T03:21:04.022Z,77.46
2022-10-17T03:21:18.386Z,77.44
2022-10-17T03:21:31.429Z,77.38
2022-10-17T03:21:44.545Z,77.47
2022-10-17T03:21:58.027Z,77.47
2022-10-17T03:22:11.107Z,77.38
2022-10-17T03:22:24.904Z,77.45
2022-10-17T03:22:38.172Z,77.44
2022-10-17T03:22:51.330Z,77.54
2022-10-17T03:23:05.098Z,77.52
2022-10-17T03:23:18.372Z,77.48
2022-10-17T03:23:31.536Z,77.52
2022-10-17T03:23:46.188Z,77.51
2022-10-17T03:23:59.318Z,77.50
2022-10-17T03:24:12.333Z,77.46
2022-10-17T03:24:24.156Z,77.45
2022-10-17T03:24:37.207Z,77.51
2022-10-17T03:24:50.542Z,77.49
2022-10-17T03:25:03.831Z,77.47
2022-10-17T03:25:16.902Z,77.41
2022-10-17T03:25:29.902Z,77.49
2022-10-17T03:25:43.174Z,77.47
2022-10-17T03:25:56.260Z,77.44
2022-10-17T03:26:11.529Z,77.53
2022-10-17T03:26:24.849Z,77.56
2022-10-17T03:26:38.241Z,77.62
2022-10-17T03:26:51.277Z,77.56
2022-10-17T03:27:04.513Z,77.59
2022-10-17T03:27:17.697Z,77.55
2022-10-17T03:27:31.195Z,77.53
2022-10-17T03:27:44.498Z,77.56
2022-10-17T03:27:58.798Z,77.48
2022-10-17T03:28:14.185Z,77.71
2022-10-17T03:28:27.960Z,77.63
2022-10-17T03:28:41.176Z,77.60
2022-10-17T03:28:54.631Z,77.64
2022-10-17T03:29:08.037Z,77.61
2022-10-17T03:29:21.146Z,77.51
2022-10-17T03:29:34.187Z,77.54
2022-10-17T03:29:48.166Z,77.58
2022-10-17T03:30:01.404Z,77.55
2022-10-17T03:30:15.278Z,77.59
2022-10-17T03:30:29.811Z,77.61
2022-10-17T03:30:42.826Z,77.57
2022-10-17T03:30:55.880Z,77.60